sensor_id;sensor_type;location;lat;lon;timestamp;temperature;humidity
3756;DHT22;1893;52.526;13.360;2022-07-05T00:00:47;18.10;1.00
3756;DHT22;1893;52.526;13.360;2022-07-05T00:03:13;18.10;1.00
3756;DHT22;1893;52.526;13.360;2022-07-05T00:05:39;18.10;1.00
3756;DHT22;1893;52.526;13.360;2022-07-05T00:08:05;18.20;1.00
3756;DHT22;1893;52.526;13.360;2022-07-05T00:10:35;18.00;1.00
3756;DHT22;1893;52.526;13.360;2022-07-05T00:13:02;17.80;1.00
3756;DHT22;1893;52.526;13.360;2022-07-05T00:15:28;17.80;1.00
3756;DHT22;1893;52.526;13.360;2022-07-05T00:17:53;17.90;1.00
3756;DHT22;1893;52.526;13.360;2022-07-05T00:20:19;17.90;1.00
3756;DHT22;1893;52.526;13.360;2022-07-05T00:22:44;17.90;1.00
3756;DHT22;1893;52.526;13.360;2022-07-05T00:25:10;17.80;1.00
3756;DHT22;1893;52.526;13.360;2022-07-05T00:27:36;17.90;1.00
3756;DHT22;1893;52.526;13.360;2022-07-05T00:30:03;17.70;1.00
3756;DHT22;1893;52.526;13.360;2022-07-05T00:32:29;17.60;1.00
3756;DHT22;1893;52.526;13.360;2022-07-05T00:34:55;17.60;1.00
3756;DHT22;1893;52.526;13.360;2022-07-05T00:37:21;17.50;1.00
3756;DHT22;1893;52.526;13.360;2022-07-05T00:39:46;17.50;1.00
3756;DHT22;1893;52.526;13.360;2022-07-05T00:42:12;17.60;1.00
3756;DHT22;1893;52.526;13.360;2022-07-05T00:44:38;17.40;1.00
3756;DHT22;1893;52.526;13.360;2022-07-05T00:47:08;17.30;1.00
3756;DHT22;1893;52.526;13.360;2022-07-05T00:49:34;17.40;1.00
3756;DHT22;1893;52.526;13.360;2022-07-05T00:52:01;17.30;1.00
3756;DHT22;1893;52.526;13.360;2022-07-05T00:54:32;17.20;1.00
3756;DHT22;1893;52.526;13.360;2022-07-05T00:56:59;17.40;1.00
3756;DHT22;1893;52.526;13.360;2022-07-05T00:59:25;17.50;1.00
3756;DHT22;1893;52.526;13.360;2022-07-05T01:01:51;17.50;1.00
3756;DHT22;1893;52.526;13.360;2022-07-05T01:04:16;17.40;1.00
3756;DHT22;1893;52.526;13.360;2022-07-05T01:06:45;17.20;1.00
3756;DHT22;1893;52.526;13.360;2022-07-05T01:09:12;17.30;1.00
3756;DHT22;1893;52.526;13.360;2022-07-05T01:11:39;17.20;1.00
3756;DHT22;1893;52.526;13.360;2022-07-05T01:14:06;17.30;1.00
3756;DHT22;1893;52.526;13.360;2022-07-05T01:16:37;17.20;21.80
3756;DHT22;1893;52.526;13.360;2022-07-05T01:19:05;17.30;99.90
3756;DHT22;1893;52.526;13.360;2022-07-05T01:21:33;17.30;97.20
3756;DHT22;1893;52.526;13.360;2022-07-05T01:24:02;17.30;99.90
3756;DHT22;1893;52.526;13.360;2022-07-05T01:26:27;17.40;99.90
3756;DHT22;1893;52.526;13.360;2022-07-05T01:28:53;17.50;99.90
3756;DHT22;1893;52.526;13.360;2022-07-05T01:31:18;17.30;99.90
3756;DHT22;1893;52.526;13.360;2022-07-05T01:33:44;17.40;99.90
3756;DHT22;1893;52.526;13.360;2022-07-05T01:36:11;17.40;93.90
3756;DHT22;1893;52.526;13.360;2022-07-05T01:38:37;17.40;69.00
3756;DHT22;1893;52.526;13.360;2022-07-05T01:41:03;17.40;29.50
3756;DHT22;1893;52.526;13.360;2022-07-05T01:43:29;17.30;7.20
3756;DHT22;1893;52.526;13.360;2022-07-05T01:45:56;17.20;21.70
3756;DHT22;1893;52.526;13.360;2022-07-05T01:48:22;17.10;46.90
3756;DHT22;1893;52.526;13.360;2022-07-05T01:50:58;17.20;59.00
3756;DHT22;1893;52.526;13.360;2022-07-05T01:53:28;17.10;57.00
3756;DHT22;1893;52.526;13.360;2022-07-05T01:55:56;17.20;47.40
3756;DHT22;1893;52.526;13.360;2022-07-05T01:58:24;17.20;6.40
3756;DHT22;1893;52.526;13.360;2022-07-05T02:00:52;17.10;2.80
3756;DHT22;1893;52.526;13.360;2022-07-05T02:03:18;17.10;14.10
3756;DHT22;1893;52.526;13.360;2022-07-05T02:05:44;17.00;18.10
3756;DHT22;1893;52.526;13.360;2022-07-05T02:08:11;16.90;40.10
3756;DHT22;1893;52.526;13.360;2022-07-05T02:10:38;16.80;99.90
3756;DHT22;1893;52.526;13.360;2022-07-05T02:13:05;16.80;99.90
3756;DHT22;1893;52.526;13.360;2022-07-05T02:15:35;16.80;99.90
3756;DHT22;1893;52.526;13.360;2022-07-05T02:18:02;16.80;99.90
3756;DHT22;1893;52.526;13.360;2022-07-05T02:20:29;16.80;99.90
3756;DHT22;1893;52.526;13.360;2022-07-05T02:22:55;16.90;99.90
3756;DHT22;1893;52.526;13.360;2022-07-05T02:25:20;16.80;99.90
3756;DHT22;1893;52.526;13.360;2022-07-05T02:27:46;16.80;99.90
3756;DHT22;1893;52.526;13.360;2022-07-05T02:30:12;16.80;99.90
3756;DHT22;1893;52.526;13.360;2022-07-05T02:32:38;16.70;99.90
3756;DHT22;1893;52.526;13.360;2022-07-05T02:35:05;16.70;99.90
3756;DHT22;1893;52.526;13.360;2022-07-05T02:37:31;16.60;99.90
3756;DHT22;1893;52.526;13.360;2022-07-05T02:39:56;16.60;99.90
3756;DHT22;1893;52.526;13.360;2022-07-05T02:42:22;16.60;99.90
3756;DHT22;1893;52.526;13.360;2022-07-05T02:44:48;16.60;99.90
3756;DHT22;1893;52.526;13.360;2022-07-05T02:47:13;16.60;99.90
3756;DHT22;1893;52.526;13.360;2022-07-05T02:49:39;16.70;99.90
3756;DHT22;1893;52.526;13.360;2022-07-05T02:52:04;16.60;99.90
3756;DHT22;1893;52.526;13.360;2022-07-05T02:54:30;16.60;99.90
3756;DHT22;1893;52.526;13.360;2022-07-05T02:56:55;16.60;99.90
3756;DHT22;1893;52.526;13.360;2022-07-05T02:59:21;16.50;1.00
3756;DHT22;1893;52.526;13.360;2022-07-05T03:01:47;16.50;1.00
3756;DHT22;1893;52.526;13.360;2022-07-05T03:04:12;16.50;1.00
3756;DHT22;1893;52.526;13.360;2022-07-05T03:06:38;16.40;1.00
3756;DHT22;1893;52.526;13.360;2022-07-05T03:09:03;16.50;1.00
3756;DHT22;1893;52.526;13.360;2022-07-05T03:11:29;16.50;1.00
3756;DHT22;1893;52.526;13.360;2022-07-05T03:13:55;16.50;1.00
3756;DHT22;1893;52.526;13.360;2022-07-05T03:16:20;16.50;99.90
3756;DHT22;1893;52.526;13.360;2022-07-05T03:18:49;16.60;99.90
3756;DHT22;1893;52.526;13.360;2022-07-05T03:21:14;16.50;99.90
3756;DHT22;1893;52.526;13.360;2022-07-05T03:23:40;16.40;1.00
3756;DHT22;1893;52.526;13.360;2022-07-05T03:26:05;16.40;99.90
3756;DHT22;1893;52.526;13.360;2022-07-05T03:28:31;16.40;1.00
3756;DHT22;1893;52.526;13.360;2022-07-05T03:30:57;16.40;1.00
3756;DHT22;1893;52.526;13.360;2022-07-05T03:33:23;16.40;1.00
3756;DHT22;1893;52.526;13.360;2022-07-05T03:35:48;16.40;1.00
3756;DHT22;1893;52.526;13.360;2022-07-05T03:38:14;16.40;1.00
3756;DHT22;1893;52.526;13.360;2022-07-05T03:40:39;16.40;1.00
3756;DHT22;1893;52.526;13.360;2022-07-05T03:43:05;16.40;76.10
3756;DHT22;1893;52.526;13.360;2022-07-05T03:45:31;16.40;71.60
3756;DHT22;1893;52.526;13.360;2022-07-05T03:48:00;16.40;1.00
3756;DHT22;1893;52.526;13.360;2022-07-05T03:50:26;16.40;1.00
3756;DHT22;1893;52.526;13.360;2022-07-05T03:52:52;16.40;1.00
3756;DHT22;1893;52.526;13.360;2022-07-05T03:55:18;16.40;99.90
3756;DHT22;1893;52.526;13.360;2022-07-05T03:57:44;16.40;1.00
3756;DHT22;1893;52.526;13.360;2022-07-05T04:00:11;16.40;1.00
3756;DHT22;1893;52.526;13.360;2022-07-05T04:02:37;16.40;59.80
3756;DHT22;1893;52.526;13.360;2022-07-05T04:05:04;16.40;1.00
3756;DHT22;1893;52.526;13.360;2022-07-05T04:07:30;16.30;1.00
3756;DHT22;1893;52.526;13.360;2022-07-05T04:09:55;16.40;99.90
3756;DHT22;1893;52.526;13.360;2022-07-05T04:12:21;16.50;1.00
3756;DHT22;1893;52.526;13.360;2022-07-05T04:14:46;16.60;1.00
3756;DHT22;1893;52.526;13.360;2022-07-05T04:17:12;16.70;1.00
3756;DHT22;1893;52.526;13.360;2022-07-05T04:19:38;16.60;26.40
3756;DHT22;1893;52.526;13.360;2022-07-05T04:22:04;16.70;1.00
3756;DHT22;1893;52.526;13.360;2022-07-05T04:24:29;16.70;1.00
3756;DHT22;1893;52.526;13.360;2022-07-05T04:26:55;16.70;1.00
3756;DHT22;1893;52.526;13.360;2022-07-05T04:29:21;16.80;1.00
3756;DHT22;1893;52.526;13.360;2022-07-05T04:31:46;16.80;1.00
3756;DHT22;1893;52.526;13.360;2022-07-05T04:34:12;16.90;1.00
3756;DHT22;1893;52.526;13.360;2022-07-05T04:36:37;16.90;1.00
3756;DHT22;1893;52.526;13.360;2022-07-05T04:39:06;17.00;1.00
3756;DHT22;1893;52.526;13.360;2022-07-05T04:41:32;17.00;1.00
3756;DHT22;1893;52.526;13.360;2022-07-05T04:43:57;17.00;1.00
3756;DHT22;1893;52.526;13.360;2022-07-05T04:46:23;17.20;99.90
3756;DHT22;1893;52.526;13.360;2022-07-05T04:48:48;17.20;99.90
3756;DHT22;1893;52.526;13.360;2022-07-05T04:51:14;17.30;1.00
3756;DHT22;1893;52.526;13.360;2022-07-05T04:53:40;17.40;1.00
3756;DHT22;1893;52.526;13.360;2022-07-05T04:56:06;17.50;1.00
3756;DHT22;1893;52.526;13.360;2022-07-05T04:58:32;17.50;1.00
3756;DHT22;1893;52.526;13.360;2022-07-05T05:00:57;17.60;1.00
3756;DHT22;1893;52.526;13.360;2022-07-05T05:03:23;17.60;99.90
3756;DHT22;1893;52.526;13.360;2022-07-05T05:05:48;17.70;1.00
3756;DHT22;1893;52.526;13.360;2022-07-05T05:08:14;17.70;99.90
3756;DHT22;1893;52.526;13.360;2022-07-05T05:10:40;17.80;99.90
3756;DHT22;1893;52.526;13.360;2022-07-05T05:13:05;17.90;99.90
3756;DHT22;1893;52.526;13.360;2022-07-05T05:15:31;18.10;99.90
3756;DHT22;1893;52.526;13.360;2022-07-05T05:17:56;18.20;99.90
3756;DHT22;1893;52.526;13.360;2022-07-05T05:20:22;18.20;99.90
3756;DHT22;1893;52.526;13.360;2022-07-05T05:22:47;18.20;87.70
3756;DHT22;1893;52.526;13.360;2022-07-05T05:25:14;18.20;34.80
3756;DHT22;1893;52.526;13.360;2022-07-05T05:27:44;18.30;1.00
3756;DHT22;1893;52.526;13.360;2022-07-05T05:30:11;18.30;1.00
3756;DHT22;1893;52.526;13.360;2022-07-05T05:32:37;18.20;1.00
3756;DHT22;1893;52.526;13.360;2022-07-05T05:35:03;18.20;1.00
3756;DHT22;1893;52.526;13.360;2022-07-05T05:37:28;18.40;1.00
3756;DHT22;1893;52.526;13.360;2022-07-05T05:39:54;18.50;1.00
3756;DHT22;1893;52.526;13.360;2022-07-05T05:42:19;18.60;1.00
3756;DHT22;1893;52.526;13.360;2022-07-05T05:44:45;18.70;1.00
3756;DHT22;1893;52.526;13.360;2022-07-05T05:47:10;18.90;1.00
3756;DHT22;1893;52.526;13.360;2022-07-05T05:49:36;18.90;1.00
3756;DHT22;1893;52.526;13.360;2022-07-05T05:52:02;18.90;1.00
3756;DHT22;1893;52.526;13.360;2022-07-05T05:54:27;19.00;1.00
3756;DHT22;1893;52.526;13.360;2022-07-05T05:56:53;19.10;1.00
3756;DHT22;1893;52.526;13.360;2022-07-05T05:59:18;19.20;99.90
3756;DHT22;1893;52.526;13.360;2022-07-05T06:01:44;19.20;99.90
3756;DHT22;1893;52.526;13.360;2022-07-05T06:04:09;19.50;99.90
3756;DHT22;1893;52.526;13.360;2022-07-05T06:06:35;19.60;99.90
3756;DHT22;1893;52.526;13.360;2022-07-05T06:09:00;19.70;99.90
3756;DHT22;1893;52.526;13.360;2022-07-05T06:11:26;19.60;99.90
3756;DHT22;1893;52.526;13.360;2022-07-05T06:13:51;19.60;99.90
3756;DHT22;1893;52.526;13.360;2022-07-05T06:16:17;19.60;99.90
3756;DHT22;1893;52.526;13.360;2022-07-05T06:18:42;19.80;99.90
3756;DHT22;1893;52.526;13.360;2022-07-05T06:21:08;19.90;99.90
3756;DHT22;1893;52.526;13.360;2022-07-05T06:23:33;20.00;99.90
3756;DHT22;1893;52.526;13.360;2022-07-05T06:25:59;20.00;99.90
3756;DHT22;1893;52.526;13.360;2022-07-05T06:28:25;20.20;99.90
3756;DHT22;1893;52.526;13.360;2022-07-05T06:30:50;20.30;99.90
3756;DHT22;1893;52.526;13.360;2022-07-05T06:33:18;20.40;99.90
3756;DHT22;1893;52.526;13.360;2022-07-05T06:35:43;20.40;99.90
3756;DHT22;1893;52.526;13.360;2022-07-05T06:38:09;20.50;99.90
3756;DHT22;1893;52.526;13.360;2022-07-05T06:40:40;20.60;99.90
3756;DHT22;1893;52.526;13.360;2022-07-05T06:43:09;20.70;99.90
3756;DHT22;1893;52.526;13.360;2022-07-05T06:45:35;20.90;99.90
3756;DHT22;1893;52.526;13.360;2022-07-05T06:48:11;21.10;99.90
3756;DHT22;1893;52.526;13.360;2022-07-05T06:50:39;21.10;99.90
3756;DHT22;1893;52.526;13.360;2022-07-05T06:53:05;21.00;99.90
3756;DHT22;1893;52.526;13.360;2022-07-05T06:55:31;21.00;99.90
3756;DHT22;1893;52.526;13.360;2022-07-05T06:58:04;21.20;99.90
3756;DHT22;1893;52.526;13.360;2022-07-05T07:00:31;21.20;99.90
3756;DHT22;1893;52.526;13.360;2022-07-05T07:02:57;21.40;99.90
3756;DHT22;1893;52.526;13.360;2022-07-05T07:05:23;21.20;99.90
3756;DHT22;1893;52.526;13.360;2022-07-05T07:07:49;21.20;99.90
3756;DHT22;1893;52.526;13.360;2022-07-05T07:10:33;21.10;99.90
3756;DHT22;1893;52.526;13.360;2022-07-05T07:13:00;21.00;99.90
3756;DHT22;1893;52.526;13.360;2022-07-05T07:15:26;21.20;99.90
3756;DHT22;1893;52.526;13.360;2022-07-05T07:17:52;21.20;99.90
3756;DHT22;1893;52.526;13.360;2022-07-05T07:20:18;21.40;99.90
3756;DHT22;1893;52.526;13.360;2022-07-05T07:22:43;21.60;99.90
3756;DHT22;1893;52.526;13.360;2022-07-05T07:25:10;21.70;99.90
3756;DHT22;1893;52.526;13.360;2022-07-05T07:28:06;21.60;99.90
3756;DHT22;1893;52.526;13.360;2022-07-05T07:30:32;21.60;99.90
3756;DHT22;1893;52.526;13.360;2022-07-05T07:32:57;21.30;99.90
3756;DHT22;1893;52.526;13.360;2022-07-05T07:35:23;21.60;99.90
3756;DHT22;1893;52.526;13.360;2022-07-05T07:37:49;21.60;99.90
3756;DHT22;1893;52.526;13.360;2022-07-05T07:40:14;21.90;99.90
3756;DHT22;1893;52.526;13.360;2022-07-05T07:42:40;21.80;99.90
3756;DHT22;1893;52.526;13.360;2022-07-05T07:45:06;21.90;99.90
3756;DHT22;1893;52.526;13.360;2022-07-05T07:47:32;22.10;99.90
3756;DHT22;1893;52.526;13.360;2022-07-05T07:49:58;22.20;99.90
3756;DHT22;1893;52.526;13.360;2022-07-05T07:52:24;22.00;99.90
3756;DHT22;1893;52.526;13.360;2022-07-05T07:54:50;21.90;99.90
3756;DHT22;1893;52.526;13.360;2022-07-05T07:57:15;22.30;99.90
3756;DHT22;1893;52.526;13.360;2022-07-05T07:59:41;22.50;99.90
3756;DHT22;1893;52.526;13.360;2022-07-05T08:02:07;22.50;99.90
3756;DHT22;1893;52.526;13.360;2022-07-05T08:04:33;22.80;99.90
3756;DHT22;1893;52.526;13.360;2022-07-05T08:06:58;22.90;99.90
3756;DHT22;1893;52.526;13.360;2022-07-05T08:09:24;22.60;99.90
3756;DHT22;1893;52.526;13.360;2022-07-05T08:11:49;22.40;99.90
3756;DHT22;1893;52.526;13.360;2022-07-05T08:14:16;22.40;99.90
3756;DHT22;1893;52.526;13.360;2022-07-05T08:16:42;22.70;99.90
3756;DHT22;1893;52.526;13.360;2022-07-05T08:19:08;22.40;99.90
3756;DHT22;1893;52.526;13.360;2022-07-05T08:21:52;22.80;99.90
3756;DHT22;1893;52.526;13.360;2022-07-05T08:24:18;22.80;99.90
3756;DHT22;1893;52.526;13.360;2022-07-05T08:26:43;22.90;99.90
3756;DHT22;1893;52.526;13.360;2022-07-05T08:29:11;22.90;99.90
3756;DHT22;1893;52.526;13.360;2022-07-05T08:31:46;22.90;99.90
3756;DHT22;1893;52.526;13.360;2022-07-05T08:34:12;23.10;99.90
3756;DHT22;1893;52.526;13.360;2022-07-05T08:36:38;22.90;99.90
3756;DHT22;1893;52.526;13.360;2022-07-05T08:39:05;22.80;99.90
3756;DHT22;1893;52.526;13.360;2022-07-05T08:41:35;22.90;99.90
3756;DHT22;1893;52.526;13.360;2022-07-05T08:44:02;23.10;99.90
3756;DHT22;1893;52.526;13.360;2022-07-05T08:46:30;23.20;99.90
3756;DHT22;1893;52.526;13.360;2022-07-05T08:48:59;23.30;99.90
3756;DHT22;1893;52.526;13.360;2022-07-05T08:51:27;23.20;99.90
3756;DHT22;1893;52.526;13.360;2022-07-05T08:53:53;23.20;99.90
3756;DHT22;1893;52.526;13.360;2022-07-05T08:56:21;23.10;99.90
3756;DHT22;1893;52.526;13.360;2022-07-05T08:58:46;23.30;99.90
3756;DHT22;1893;52.526;13.360;2022-07-05T09:01:14;23.30;99.90
3756;DHT22;1893;52.526;13.360;2022-07-05T09:03:47;23.40;99.90
3756;DHT22;1893;52.526;13.360;2022-07-05T09:06:16;23.30;99.90
3756;DHT22;1893;52.526;13.360;2022-07-05T09:08:43;23.30;99.90
3756;DHT22;1893;52.526;13.360;2022-07-05T09:11:12;23.50;99.90
3756;DHT22;1893;52.526;13.360;2022-07-05T09:13:41;23.70;99.90
3756;DHT22;1893;52.526;13.360;2022-07-05T09:16:07;23.60;99.90
3756;DHT22;1893;52.526;13.360;2022-07-05T09:18:47;23.70;99.90
3756;DHT22;1893;52.526;13.360;2022-07-05T09:21:21;23.90;99.90
3756;DHT22;1893;52.526;13.360;2022-07-05T09:23:57;23.70;99.90
3756;DHT22;1893;52.526;13.360;2022-07-05T09:26:38;23.90;99.90
3756;DHT22;1893;52.526;13.360;2022-07-05T09:29:10;23.90;99.90
3756;DHT22;1893;52.526;13.360;2022-07-05T09:31:41;24.10;99.90
3756;DHT22;1893;52.526;13.360;2022-07-05T09:34:18;24.00;99.90
3756;DHT22;1893;52.526;13.360;2022-07-05T09:39:15;24.10;99.90
3756;DHT22;1893;52.526;13.360;2022-07-05T09:41:40;24.40;99.90
3756;DHT22;1893;52.526;13.360;2022-07-05T09:44:06;24.40;99.90
3756;DHT22;1893;52.526;13.360;2022-07-05T09:46:32;24.40;99.90
3756;DHT22;1893;52.526;13.360;2022-07-05T09:48:58;24.40;99.90
3756;DHT22;1893;52.526;13.360;2022-07-05T09:51:23;24.50;99.90
3756;DHT22;1893;52.526;13.360;2022-07-05T09:53:52;24.40;99.90
3756;DHT22;1893;52.526;13.360;2022-07-05T09:56:18;24.90;99.90
3756;DHT22;1893;52.526;13.360;2022-07-05T09:58:44;25.30;99.90
3756;DHT22;1893;52.526;13.360;2022-07-05T10:03:53;25.10;99.90
3756;DHT22;1893;52.526;13.360;2022-07-05T10:06:23;26.10;99.90
3756;DHT22;1893;52.526;13.360;2022-07-05T10:08:49;27.10;99.90
3756;DHT22;1893;52.526;13.360;2022-07-05T10:11:17;27.40;99.90
3756;DHT22;1893;52.526;13.360;2022-07-05T10:13:47;28.20;99.90
3756;DHT22;1893;52.526;13.360;2022-07-05T10:16:17;28.70;99.90
3756;DHT22;1893;52.526;13.360;2022-07-05T10:18:45;28.60;99.90
3756;DHT22;1893;52.526;13.360;2022-07-05T10:21:15;29.00;99.90
3756;DHT22;1893;52.526;13.360;2022-07-05T10:23:46;28.70;99.90
3756;DHT22;1893;52.526;13.360;2022-07-05T10:26:13;29.00;99.90
3756;DHT22;1893;52.526;13.360;2022-07-05T10:28:41;28.60;99.90
3756;DHT22;1893;52.526;13.360;2022-07-05T10:31:10;28.20;99.90
3756;DHT22;1893;52.526;13.360;2022-07-05T10:33:37;27.20;99.90
3756;DHT22;1893;52.526;13.360;2022-07-05T10:36:04;26.30;99.90
3756;DHT22;1893;52.526;13.360;2022-07-05T10:38:35;26.80;99.90
3756;DHT22;1893;52.526;13.360;2022-07-05T10:41:02;28.10;99.90
3756;DHT22;1893;52.526;13.360;2022-07-05T10:43:29;28.80;99.90
3756;DHT22;1893;52.526;13.360;2022-07-05T10:45:55;29.30;99.90
3756;DHT22;1893;52.526;13.360;2022-07-05T10:48:25;27.80;99.90
3756;DHT22;1893;52.526;13.360;2022-07-05T10:51:01;25.80;99.90
3756;DHT22;1893;52.526;13.360;2022-07-05T10:56:20;26.30;99.90
3756;DHT22;1893;52.526;13.360;2022-07-05T10:58:46;27.00;99.90
3756;DHT22;1893;52.526;13.360;2022-07-05T11:03:47;26.10;99.90
3756;DHT22;1893;52.526;13.360;2022-07-05T11:11:30;25.60;99.90
3756;DHT22;1893;52.526;13.360;2022-07-05T11:14:02;26.90;99.90
3756;DHT22;1893;52.526;13.360;2022-07-05T11:16:30;26.70;99.90
3756;DHT22;1893;52.526;13.360;2022-07-05T11:19:07;26.80;99.90
3756;DHT22;1893;52.526;13.360;2022-07-05T11:21:34;26.30;99.90
3756;DHT22;1893;52.526;13.360;2022-07-05T11:24:25;25.40;99.90
3756;DHT22;1893;52.526;13.360;2022-07-05T11:26:52;24.80;99.90
3756;DHT22;1893;52.526;13.360;2022-07-05T11:32:10;26.40;99.90
3756;DHT22;1893;52.526;13.360;2022-07-05T11:34:37;27.00;99.90
3756;DHT22;1893;52.526;13.360;2022-07-05T11:37:22;27.10;99.90
3756;DHT22;1893;52.526;13.360;2022-07-05T11:42:48;28.90;99.90
3756;DHT22;1893;52.526;13.360;2022-07-05T11:45:14;29.00;99.90
3756;DHT22;1893;52.526;13.360;2022-07-05T11:47:40;28.80;99.90
3756;DHT22;1893;52.526;13.360;2022-07-05T11:50:06;28.40;99.90
3756;DHT22;1893;52.526;13.360;2022-07-05T11:52:34;27.50;99.90
3756;DHT22;1893;52.526;13.360;2022-07-05T11:55:02;27.50;99.90
3756;DHT22;1893;52.526;13.360;2022-07-05T11:57:28;27.00;99.90
3756;DHT22;1893;52.526;13.360;2022-07-05T11:59:54;27.00;99.90
3756;DHT22;1893;52.526;13.360;2022-07-05T12:02:19;25.80;99.90
3756;DHT22;1893;52.526;13.360;2022-07-05T12:04:53;25.40;99.90
3756;DHT22;1893;52.526;13.360;2022-07-05T12:07:28;24.90;99.90
3756;DHT22;1893;52.526;13.360;2022-07-05T12:09:55;24.90;99.90
3756;DHT22;1893;52.526;13.360;2022-07-05T12:12:39;24.90;99.90
3756;DHT22;1893;52.526;13.360;2022-07-05T12:15:12;24.70;99.90
3756;DHT22;1893;52.526;13.360;2022-07-05T12:17:40;25.40;99.90
3756;DHT22;1893;52.526;13.360;2022-07-05T12:20:09;25.50;99.90
3756;DHT22;1893;52.526;13.360;2022-07-05T12:22:37;25.50;99.90
3756;DHT22;1893;52.526;13.360;2022-07-05T12:25:07;25.40;99.90
3756;DHT22;1893;52.526;13.360;2022-07-05T12:27:38;25.00;99.90
3756;DHT22;1893;52.526;13.360;2022-07-05T12:30:05;24.70;99.90
3756;DHT22;1893;52.526;13.360;2022-07-05T12:32:31;25.00;99.90
3756;DHT22;1893;52.526;13.360;2022-07-05T12:34:58;25.50;99.90
3756;DHT22;1893;52.526;13.360;2022-07-05T12:37:27;25.20;99.90
3756;DHT22;1893;52.526;13.360;2022-07-05T12:40:08;25.10;99.90
3756;DHT22;1893;52.526;13.360;2022-07-05T12:42:36;24.80;99.90
3756;DHT22;1893;52.526;13.360;2022-07-05T12:45:13;25.20;99.90
3756;DHT22;1893;52.526;13.360;2022-07-05T12:47:48;25.60;99.90
3756;DHT22;1893;52.526;13.360;2022-07-05T12:50:15;25.50;99.90
3756;DHT22;1893;52.526;13.360;2022-07-05T12:52:56;25.60;99.90
3756;DHT22;1893;52.526;13.360;2022-07-05T12:55:22;25.50;99.90
3756;DHT22;1893;52.526;13.360;2022-07-05T12:58:06;25.50;99.90
3756;DHT22;1893;52.526;13.360;2022-07-05T13:00:32;25.60;99.90
3756;DHT22;1893;52.526;13.360;2022-07-05T13:02:57;25.70;99.90
3756;DHT22;1893;52.526;13.360;2022-07-05T13:05:24;25.80;99.90
3756;DHT22;1893;52.526;13.360;2022-07-05T13:07:50;26.10;99.90
3756;DHT22;1893;52.526;13.360;2022-07-05T13:10:24;26.20;99.90
3756;DHT22;1893;52.526;13.360;2022-07-05T13:12:50;26.20;99.90
3756;DHT22;1893;52.526;13.360;2022-07-05T13:15:17;26.30;99.90
3756;DHT22;1893;52.526;13.360;2022-07-05T13:17:43;26.30;99.90
3756;DHT22;1893;52.526;13.360;2022-07-05T13:20:10;25.70;99.90
3756;DHT22;1893;52.526;13.360;2022-07-05T13:22:36;25.20;99.30
3756;DHT22;1893;52.526;13.360;2022-07-05T13:25:02;25.10;98.50
3756;DHT22;1893;52.526;13.360;2022-07-05T13:27:29;24.90;97.60
3756;DHT22;1893;52.526;13.360;2022-07-05T13:29:54;24.80;97.50
3756;DHT22;1893;52.526;13.360;2022-07-05T13:32:20;24.60;97.50
3756;DHT22;1893;52.526;13.360;2022-07-05T13:34:49;24.70;97.50
3756;DHT22;1893;52.526;13.360;2022-07-05T13:37:15;24.50;97.20
3756;DHT22;1893;52.526;13.360;2022-07-05T13:39:41;24.70;97.60
3756;DHT22;1893;52.526;13.360;2022-07-05T13:42:07;25.10;99.90
3756;DHT22;1893;52.526;13.360;2022-07-05T13:44:32;25.50;99.90
3756;DHT22;1893;52.526;13.360;2022-07-05T13:46:58;26.00;99.90
3756;DHT22;1893;52.526;13.360;2022-07-05T13:49:24;26.10;99.90
3756;DHT22;1893;52.526;13.360;2022-07-05T13:51:50;26.20;99.90
3756;DHT22;1893;52.526;13.360;2022-07-05T13:54:15;26.00;99.90
3756;DHT22;1893;52.526;13.360;2022-07-05T13:56:42;26.20;99.90
3756;DHT22;1893;52.526;13.360;2022-07-05T13:59:08;26.30;99.90
3756;DHT22;1893;52.526;13.360;2022-07-05T14:01:33;26.20;99.90
3756;DHT22;1893;52.526;13.360;2022-07-05T14:04:00;26.00;98.60
3756;DHT22;1893;52.526;13.360;2022-07-05T14:06:28;25.70;99.90
3756;DHT22;1893;52.526;13.360;2022-07-05T14:08:55;25.60;97.70
3756;DHT22;1893;52.526;13.360;2022-07-05T14:11:20;26.00;98.20
3756;DHT22;1893;52.526;13.360;2022-07-05T14:13:46;25.90;98.00
3756;DHT22;1893;52.526;13.360;2022-07-05T14:16:12;25.70;97.60
3756;DHT22;1893;52.526;13.360;2022-07-05T14:18:38;25.20;94.90
3756;DHT22;1893;52.526;13.360;2022-07-05T14:21:04;24.90;93.60
3756;DHT22;1893;52.526;13.360;2022-07-05T14:23:30;24.60;92.60
3756;DHT22;1893;52.526;13.360;2022-07-05T14:25:58;24.30;91.00
3756;DHT22;1893;52.526;13.360;2022-07-05T14:28:24;24.30;91.20
3756;DHT22;1893;52.526;13.360;2022-07-05T14:30:50;24.60;93.10
3756;DHT22;1893;52.526;13.360;2022-07-05T14:33:16;24.90;94.30
3756;DHT22;1893;52.526;13.360;2022-07-05T14:35:43;25.10;94.70
3756;DHT22;1893;52.526;13.360;2022-07-05T14:38:08;25.30;95.40
3756;DHT22;1893;52.526;13.360;2022-07-05T14:40:34;25.30;95.40
3756;DHT22;1893;52.526;13.360;2022-07-05T14:43:00;25.00;93.40
3756;DHT22;1893;52.526;13.360;2022-07-05T14:45:27;25.10;94.40
3756;DHT22;1893;52.526;13.360;2022-07-05T14:47:53;25.20;94.20
3756;DHT22;1893;52.526;13.360;2022-07-05T14:50:19;25.30;93.70
3756;DHT22;1893;52.526;13.360;2022-07-05T14:52:46;25.00;91.90
3756;DHT22;1893;52.526;13.360;2022-07-05T14:55:13;25.00;92.50
3756;DHT22;1893;52.526;13.360;2022-07-05T14:57:39;25.30;93.60
3756;DHT22;1893;52.526;13.360;2022-07-05T15:00:08;25.20;92.90
3756;DHT22;1893;52.526;13.360;2022-07-05T15:02:34;24.90;91.30
3756;DHT22;1893;52.526;13.360;2022-07-05T15:05:00;25.00;91.70
3756;DHT22;1893;52.526;13.360;2022-07-05T15:07:26;25.10;92.80
3756;DHT22;1893;52.526;13.360;2022-07-05T15:09:51;24.90;90.40
3756;DHT22;1893;52.526;13.360;2022-07-05T15:12:17;24.90;90.50
3756;DHT22;1893;52.526;13.360;2022-07-05T15:14:43;24.90;90.00
3756;DHT22;1893;52.526;13.360;2022-07-05T15:17:09;24.70;86.20
3756;DHT22;1893;52.526;13.360;2022-07-05T15:19:34;24.50;85.30
3756;DHT22;1893;52.526;13.360;2022-07-05T15:22:00;24.50;86.20
3756;DHT22;1893;52.526;13.360;2022-07-05T15:24:26;24.50;87.00
3756;DHT22;1893;52.526;13.360;2022-07-05T15:26:52;24.60;86.70
3756;DHT22;1893;52.526;13.360;2022-07-05T15:29:18;24.60;87.80
3756;DHT22;1893;52.526;13.360;2022-07-05T15:31:43;24.40;84.50
3756;DHT22;1893;52.526;13.360;2022-07-05T15:34:09;24.40;85.50
3756;DHT22;1893;52.526;13.360;2022-07-05T15:36:35;24.70;86.80
3756;DHT22;1893;52.526;13.360;2022-07-05T15:39:03;24.70;86.80
3756;DHT22;1893;52.526;13.360;2022-07-05T15:41:30;24.40;82.70
3756;DHT22;1893;52.526;13.360;2022-07-05T15:43:56;24.30;81.70
3756;DHT22;1893;52.526;13.360;2022-07-05T15:46:21;24.20;79.80
3756;DHT22;1893;52.526;13.360;2022-07-05T15:48:47;24.00;78.20
3756;DHT22;1893;52.526;13.360;2022-07-05T15:51:17;23.90;76.20
3756;DHT22;1893;52.526;13.360;2022-07-05T15:53:43;24.10;79.10
3756;DHT22;1893;52.526;13.360;2022-07-05T15:56:09;24.30;79.70
3756;DHT22;1893;52.526;13.360;2022-07-05T15:58:35;24.50;80.60
3756;DHT22;1893;52.526;13.360;2022-07-05T16:01:02;24.60;81.60
3756;DHT22;1893;52.526;13.360;2022-07-05T16:03:29;24.70;79.90
3756;DHT22;1893;52.526;13.360;2022-07-05T16:05:55;24.40;76.60
3756;DHT22;1893;52.526;13.360;2022-07-05T16:08:23;24.40;75.00
3756;DHT22;1893;52.526;13.360;2022-07-05T16:10:48;24.10;72.10